createdAt,value
2022-07-29T00:02:26.636Z,100750.22
2022-07-29T00:04:53.421Z,100743.91
2022-07-29T00:07:20.145Z,100741.91
2022-07-29T00:09:51.535Z,100732.22
2022-07-29T00:12:26.169Z,100728.38
2022-07-29T00:14:55.226Z,100733.25
2022-07-29T00:17:22.319Z,100730.53
2022-07-29T00:19:48.954Z,100728.41
2022-07-29T00:22:15.829Z,100729.72
2022-07-29T00:24:42.559Z,100726.50
2022-07-29T00:27:09.223Z,100725.75
2022-07-29T00:29:35.904Z,100715.47
2022-07-29T00:32:03.871Z,100720.56
2022-07-29T00:34:49.433Z,100727.00
2022-07-29T00:37:16.205Z,100723.94
2022-07-29T00:39:43.006Z,100718.47
2022-07-29T00:42:10.598Z,100723.22
2022-07-29T00:44:41.508Z,100716.44
2022-07-29T00:47:09.991Z,100715.69
2022-07-29T00:49:37.582Z,100715.84
2022-07-29T00:52:08.571Z,100703.06
2022-07-29T00:54:35.282Z,100699.69
2022-07-29T00:57:04.133Z,100703.22
2022-07-29T00:59:34.728Z,100700.63
2022-07-29T01:02:04.079Z,100691.97
2022-07-29T01:04:32.412Z,100677.53
2022-07-29T01:07:01.015Z,100686.88
2022-07-29T01:09:43.158Z,100679.28
2022-07-29T01:12:22.318Z,100673.47
2022-07-29T01:14:50.647Z,100675.63
2022-07-29T01:17:52.717Z,100674.53
2022-07-29T01:20:48.106Z,100659.00
2022-07-29T01:23:38.123Z,100668.19
2022-07-29T01:26:11.121Z,100663.78
2022-07-29T01:29:07.568Z,100661.41
2022-07-29T01:31:59.606Z,100662.84
2022-07-29T01:34:47.925Z,100658.13
2022-07-29T01:37:21.344Z,100667.00
2022-07-29T01:39:52.391Z,100655.03
2022-07-29T01:42:44.241Z,100648.19
2022-07-29T01:45:27.297Z,100651.84
2022-07-29T01:47:53.863Z,100646.75
2022-07-29T01:50:24.255Z,100644.47
2022-07-29T01:52:56.917Z,100634.25
2022-07-29T01:55:29.517Z,100638.38
2022-07-29T01:57:58.413Z,100627.91
2022-07-29T02:00:26.549Z,100631.44
2022-07-29T02:02:55.261Z,100626.19
2022-07-29T02:05:24.150Z,100618.84
2022-07-29T02:07:53.624Z,100628.16
2022-07-29T02:10:25.787Z,100622.78
2022-07-29T02:12:55.548Z,100628.38
2022-07-29T02:15:24.151Z,100627.06
2022-07-29T02:17:59.082Z,100625.97
2022-07-29T02:20:27.230Z,100622.31
2022-07-29T02:22:56.343Z,100625.88
2022-07-29T02:25:25.242Z,100623.31
2022-07-29T02:28:06.161Z,100609.47
2022-07-29T02:30:33.858Z,100612.50
2022-07-29T02:33:01.983Z,100622.13
2022-07-29T02:35:34.621Z,100613.59
2022-07-29T02:38:22.261Z,100629.19
2022-07-29T02:40:50.729Z,100633.94
2022-07-29T02:43:18.745Z,100630.59
2022-07-29T02:45:48.259Z,100633.38
2022-07-29T02:48:24.989Z,100632.63
2022-07-29T02:51:02.251Z,100631.38
2022-07-29T02:53:34.189Z,100626.88
2022-07-29T02:56:15.491Z,100619.28
2022-07-29T02:58:50.439Z,100617.06
2022-07-29T03:01:23.249Z,100617.09
2022-07-29T03:03:52.666Z,100616.41
2022-07-29T03:06:31.078Z,100617.22
2022-07-29T03:09:12.318Z,100628.50
2022-07-29T03:11:49.367Z,100624.50
2022-07-29T03:14:20.373Z,100620.00
2022-07-29T03:16:48.469Z,100617.00
2022-07-29T03:19:15.850Z,100626.88
2022-07-29T03:21:42.554Z,100626.22
2022-07-29T03:24:12.617Z,100624.00
2022-07-29T03:29:05.886Z,100628.41
2022-07-29T03:31:33.543Z,100628.91
2022-07-29T03:34:00.412Z,100630.44
2022-07-29T03:36:27.144Z,100623.66
2022-07-29T03:38:54.193Z,100642.28
2022-07-29T03:41:23.406Z,100673.16
2022-07-29T03:43:52.583Z,100680.47
2022-07-29T03:46:23.738Z,100668.34
2022-07-29T03:48:57.320Z,100657.94
2022-07-29T03:51:33.992Z,100649.00
2022-07-29T03:54:14.200Z,100667.75
2022-07-29T03:56:45.456Z,100665.22
2022-07-29T03:59:13.678Z,100668.13
2022-07-29T04:01:40.802Z,100666.78
2022-07-29T04:04:07.735Z,100672.72
2022-07-29T04:06:45.457Z,100672.97
2022-07-29T04:09:13.265Z,100674.88
2022-07-29T04:12:02.171Z,100668.69
2022-07-29T04:14:28.003Z,100669.34
2022-07-29T04:16:54.693Z,100666.47
2022-07-29T04:19:21.449Z,100681.03
2022-07-29T04:21:48.119Z,100686.22
2022-07-29T04:24:15.196Z,100677.41
2022-07-29T04:26:42.127Z,100668.06
2022-07-29T04:29:08.734Z,100676.84
2022-07-29T04:31:35.633Z,100691.66
2022-07-29T04:34:02.374Z,100704.72
2022-07-29T04:36:30.091Z,100708.09
2022-07-29T04:38:56.991Z,100721.53
2022-07-29T04:41:23.747Z,100732.13
2022-07-29T04:44:01.796Z,100735.59
2022-07-29T04:46:28.561Z,100743.78
2022-07-29T04:48:55.368Z,100746.59
2022-07-29T04:51:21.980Z,100736.16
2022-07-29T04:53:48.833Z,100737.97
2022-07-29T04:56:15.436Z,100738.63
2022-07-29T04:58:42.135Z,100737.13
2022-07-29T05:01:08.768Z,100739.91
2022-07-29T05:03:35.468Z,100740.63
2022-07-29T05:06:02.063Z,100724.69
2022-07-29T05:08:28.822Z,100722.72
2022-07-29T05:10:55.480Z,100717.25
2022-07-29T05:13:22.292Z,100719.41
2022-07-29T05:15:49.090Z,100727.34
2022-07-29T05:18:15.849Z,100712.47
2022-07-29T05:20:42.825Z,100697.66
2022-07-29T05:23:09.845Z,100695.00
2022-07-29T05:25:42.914Z,100691.13
2022-07-29T05:28:12.294Z,100696.00
2022-07-29T05:30:39.021Z,100701.00
2022-07-29T05:33:05.754Z,100695.97
2022-07-29T05:35:32.419Z,100705.34
2022-07-29T05:37:59.045Z,100697.19
2022-07-29T05:40:25.675Z,100701.88
2022-07-29T05:42:52.351Z,100681.94
2022-07-29T05:45:19.011Z,100685.94
2022-07-29T05:47:46.408Z,100692.34
2022-07-29T05:50:13.233Z,100696.78
2022-07-29T05:52:39.843Z,100701.34
2022-07-29T05:55:06.775Z,100702.31
2022-07-29T05:57:33.555Z,100702.66
2022-07-29T06:00:00.299Z,100692.81
2022-07-29T06:02:26.976Z,100699.00
2022-07-29T06:04:53.737Z,100694.47
2022-07-29T06:07:20.678Z,100705.44
2022-07-29T06:09:47.266Z,100696.00
2022-07-29T06:12:13.967Z,100692.38
2022-07-29T06:14:40.983Z,100685.59
2022-07-29T06:17:07.675Z,100692.81
2022-07-29T06:19:37.464Z,100692.19
2022-07-29T06:22:04.621Z,100688.19
2022-07-29T06:24:31.627Z,100693.16
2022-07-29T06:26:58.465Z,100683.63
2022-07-29T06:29:25.213Z,100676.78
2022-07-29T06:31:52.009Z,100678.75
2022-07-29T06:34:19.182Z,100680.28
2022-07-29T06:36:47.570Z,100678.06
2022-07-29T06:39:15.971Z,100673.69
2022-07-29T06:41:42.778Z,100675.81
2022-07-29T06:44:10.119Z,100674.75
2022-07-29T06:46:37.392Z,100675.25
2022-07-29T06:49:05.295Z,100673.72
2022-07-29T06:51:32.001Z,100668.25
2022-07-29T06:54:02.813Z,100670.38
2022-07-29T06:56:40.293Z,100660.44
2022-07-29T06:59:08.794Z,100665.44
2022-07-29T07:01:40.196Z,100660.38
2022-07-29T07:04:07.663Z,100674.50
2022-07-29T07:06:34.284Z,100682.25
2022-07-29T07:09:01.118Z,100688.72
2022-07-29T07:11:28.420Z,100693.75
2022-07-29T07:13:59.258Z,100701.56
2022-07-29T07:16:29.431Z,100698.16
2022-07-29T07:18:56.048Z,100707.88
2022-07-29T07:21:22.898Z,100712.44
2022-07-29T07:23:49.531Z,100725.06
2022-07-29T07:26:16.476Z,100732.09
2022-07-29T07:28:43.078Z,100733.28
2022-07-29T07:31:10.443Z,100732.94
2022-07-29T07:33:37.156Z,100734.78
2022-07-29T07:36:04.220Z,100732.41
2022-07-29T07:38:30.897Z,100727.59
2022-07-29T07:40:57.728Z,100726.00
2022-07-29T07:43:24.313Z,100732.25
2022-07-29T07:45:51.207Z,100734.56
2022-07-29T07:48:18.006Z,100742.66
2022-07-29T07:50:44.732Z,100741.19
2022-07-29T07:53:11.669Z,100743.47
2022-07-29T07:56:09.225Z,100750.06
2022-07-29T07:58:31.471Z,100745.16
2022-07-29T08:00:58.251Z,100753.44
2022-07-29T08:03:25.116Z,100755.44
2022-07-29T08:05:52.643Z,100757.88
2022-07-29T08:08:19.354Z,100760.19
2022-07-29T08:10:56.639Z,100754.59
2022-07-29T08:13:28.961Z,100754.53
2022-07-29T08:15:59.087Z,100767.16
2022-07-29T08:18:27.333Z,100755.84
2022-07-29T08:20:54.158Z,100758.81
2022-07-29T08:23:21.062Z,100749.00
2022-07-29T08:25:50.063Z,100748.72
2022-07-29T08:28:18.029Z,100762.88
2022-07-29T08:30:44.837Z,100768.66
2022-07-29T08:33:11.814Z,100765.97
2022-07-29T08:35:40.380Z,100769.84
2022-07-29T08:38:07.209Z,100779.31
2022-07-29T08:40:33.934Z,100773.72
2022-07-29T08:43:06.879Z,100765.88
2022-07-29T08:45:51.042Z,100770.72
2022-07-29T08:48:20.936Z,100764.25
2022-07-29T08:50:49.496Z,100769.84
2022-07-29T08:53:18.375Z,100767.38
2022-07-29T08:55:47.737Z,100765.88
2022-07-29T08:58:15.945Z,100759.38
2022-07-29T09:00:53.910Z,100759.72
2022-07-29T09:03:25.534Z,100761.38
2022-07-29T09:05:52.663Z,100762.75
2022-07-29T09:08:20.928Z,100761.13
2022-07-29T09:10:48.082Z,100756.81
2022-07-29T09:13:14.670Z,100759.72
2022-07-29T09:15:41.355Z,100759.63
2022-07-29T09:18:07.994Z,100751.69
2022-07-29T09:21:11.820Z,100760.72
2022-07-29T09:23:38.886Z,100759.28
2022-07-29T09:26:07.133Z,100762.97
2022-07-29T09:28:33.732Z,100762.56
2022-07-29T09:31:00.371Z,100760.38
2022-07-29T09:33:36.509Z,100766.19
2022-07-29T09:36:08.526Z,100761.78
2022-07-29T09:38:37.513Z,100755.97
2022-07-29T09:41:06.696Z,100758.84
2022-07-29T09:43:34.170Z,100756.16
2022-07-29T09:46:14.399Z,100753.25
2022-07-29T09:48:41.617Z,100760.38
2022-07-29T09:51:26.716Z,100766.06
2022-07-29T09:53:55.254Z,100759.06
2022-07-29T09:56:39.522Z,100758.06
2022-07-29T09:59:07.458Z,100761.19
2022-07-29T10:01:34.548Z,100746.13
2022-07-29T10:04:01.484Z,100743.75
2022-07-29T10:06:28.134Z,100742.91
2022-07-29T10:08:55.416Z,100739.41
2022-07-29T10:11:22.030Z,100728.47
2022-07-29T10:13:49.568Z,100708.63
2022-07-29T10:16:17.585Z,100701.00
2022-07-29T10:18:45.542Z,100697.94
2022-07-29T10:21:35.197Z,100704.84
2022-07-29T10:24:00.951Z,100709.09
2022-07-29T10:26:30.407Z,100716.34
2022-07-29T10:28:58.093Z,100722.28
2022-07-29T10:31:35.568Z,100720.25
2022-07-29T10:34:08.787Z,100715.91
2022-07-29T10:36:50.619Z,100716.66
2022-07-29T10:39:27.217Z,100720.94
2022-07-29T10:42:29.720Z,100723.88
2022-07-29T10:45:02.708Z,100730.19
2022-07-29T10:47:31.642Z,100727.03
2022-07-29T10:50:01.378Z,100732.25
2022-07-29T10:52:57.845Z,100739.53
2022-07-29T10:58:27.485Z,100730.25
2022-07-29T11:00:56.244Z,100735.78
2022-07-29T11:03:50.689Z,100744.50
2022-07-29T11:06:26.206Z,100747.84
2022-07-29T11:09:13.106Z,100750.91
2022-07-29T11:11:44.188Z,100749.69
2022-07-29T11:14:18.635Z,100757.22
2022-07-29T11:17:06.460Z,100748.16
2022-07-29T11:19:33.853Z,100748.22
2022-07-29T11:22:01.400Z,100742.94
2022-07-29T11:24:33.044Z,100747.16
2022-07-29T11:27:14.017Z,100744.28
2022-07-29T11:29:54.447Z,100744.53
2022-07-29T11:35:17.116Z,100739.41
2022-07-29T11:38:23.219Z,100737.59
2022-07-29T11:41:27.274Z,100745.91
2022-07-29T11:43:59.130Z,100745.50
2022-07-29T11:46:44.658Z,100754.22
2022-07-29T11:49:12.488Z,100745.09
2022-07-29T11:51:48.524Z,100747.66
2022-07-29T11:54:27.296Z,100741.00
2022-07-29T11:56:55.838Z,100735.19
2022-07-29T11:59:22.783Z,100728.44
2022-07-29T12:02:18.481Z,100733.53
2022-07-29T12:04:56.521Z,100738.91
2022-07-29T12:07:34.770Z,100735.13
2022-07-29T12:10:04.037Z,100742.72
2022-07-29T12:12:34.292Z,100742.66
2022-07-29T12:15:24.913Z,100741.09
2022-07-29T12:18:15.040Z,100745.56
2022-07-29T12:20:43.040Z,100733.66
2022-07-29T12:23:16.214Z,100736.97
2022-07-29T12:25:45.534Z,100737.91
2022-07-29T12:28:26.547Z,100732.75
2022-07-29T12:30:53.850Z,100742.63
2022-07-29T12:33:27.401Z,100745.81
2022-07-29T12:36:07.277Z,100734.47
2022-07-29T12:38:36.832Z,100739.00
2022-07-29T12:41:04.939Z,100740.69
2022-07-29T12:43:32.615Z,100743.56
2022-07-29T12:46:13.375Z,100750.59
2022-07-29T12:48:42.659Z,100742.25
2022-07-29T12:51:12.481Z,100739.25
2022-07-29T12:53:39.547Z,100744.41
2022-07-29T12:56:26.677Z,100740.41
2022-07-29T12:58:54.044Z,100738.81
2022-07-29T13:01:21.785Z,100739.41
2022-07-29T13:04:03.682Z,100733.59
2022-07-29T13:06:39.557Z,100737.84
2022-07-29T13:09:14.441Z,100740.13
2022-07-29T13:11:47.932Z,100733.41
2022-07-29T13:14:36.696Z,100736.09
2022-07-29T13:17:21.590Z,100744.41
2022-07-29T13:19:54.042Z,100746.69
2022-07-29T13:22:25.564Z,100754.25
2022-07-29T13:25:02.851Z,100748.69
2022-07-29T13:27:37.181Z,100747.38
2022-07-29T13:30:06.824Z,100739.69
2022-07-29T13:32:35.433Z,100752.88
2022-07-29T13:35:05.606Z,100744.50
2022-07-29T13:37:34.981Z,100745.38
2022-07-29T13:40:04.041Z,100743.94
2022-07-29T13:42:31.112Z,100745.66
2022-07-29T13:44:58.706Z,100747.91
2022-07-29T13:47:32.206Z,100746.44
2022-07-29T13:50:04.213Z,100743.94
2022-07-29T13:52:32.863Z,100738.91
2022-07-29T13:54:59.520Z,100738.91
2022-07-29T13:57:26.246Z,100743.09
2022-07-29T13:59:54.441Z,100742.75
2022-07-29T14:02:21.722Z,100732.91
2022-07-29T14:04:53.761Z,100729.88
2022-07-29T14:07:20.434Z,100733.56
2022-07-29T14:09:47.153Z,100723.50
2022-07-29T14:12:13.899Z,100724.94
2022-07-29T14:14:40.626Z,100717.13
2022-07-29T14:17:07.732Z,100728.81
2022-07-29T14:19:38.934Z,100731.34
2022-07-29T14:22:07.703Z,100738.97
2022-07-29T14:24:37.065Z,100719.94
2022-07-29T14:27:05.366Z,100724.75
2022-07-29T14:29:37.132Z,100732.31
2022-07-29T14:32:09.856Z,100734.53
2022-07-29T14:34:37.943Z,100732.84
2022-07-29T14:37:06.403Z,100723.31
2022-07-29T14:39:36.076Z,100723.91
2022-07-29T14:42:06.295Z,100712.34
2022-07-29T14:44:33.031Z,100727.03
2022-07-29T14:47:00.770Z,100718.97
2022-07-29T14:49:28.051Z,100732.16
2022-07-29T14:51:54.712Z,100726.28
2022-07-29T14:54:21.415Z,100725.72
2022-07-29T14:56:50.177Z,100731.38
2022-07-29T14:59:17.464Z,100735.88
2022-07-29T15:01:44.269Z,100735.31
2022-07-29T15:04:11.068Z,100736.13
2022-07-29T15:06:38.781Z,100733.91
2022-07-29T15:09:05.483Z,100732.56
2022-07-29T15:11:32.204Z,100723.25
2022-07-29T15:14:05.404Z,100727.44
2022-07-29T15:16:32.191Z,100731.41
2022-07-29T15:19:01.148Z,100729.13
2022-07-29T15:21:28.445Z,100737.28
2022-07-29T15:23:55.161Z,100732.81
2022-07-29T15:26:21.945Z,100727.50
2022-07-29T15:28:49.123Z,100723.00
2022-07-29T15:31:15.980Z,100724.91
2022-07-29T15:33:42.828Z,100728.03
2022-07-29T15:36:09.599Z,100716.81
2022-07-29T15:38:36.323Z,100726.94
2022-07-29T15:41:09.050Z,100731.44
2022-07-29T15:43:36.145Z,100728.91
2022-07-29T15:46:21.571Z,100719.06
2022-07-29T15:48:48.268Z,100727.50
2022-07-29T15:51:15.256Z,100726.38
2022-07-29T15:53:41.882Z,100722.72
2022-07-29T15:56:08.461Z,100729.72
2022-07-29T15:58:35.083Z,100729.72
2022-07-29T16:01:01.798Z,100721.59
2022-07-29T16:03:28.561Z,100722.69
2022-07-29T16:05:55.294Z,100720.16
2022-07-29T16:08:21.929Z,100720.47
2022-07-29T16:10:48.522Z,100719.34
2022-07-29T16:13:18.875Z,100727.50
2022-07-29T16:16:02.299Z,100715.69
2022-07-29T16:18:30.755Z,100715.69
2022-07-29T16:20:58.114Z,100715.09
2022-07-29T16:23:25.241Z,100719.56
2022-07-29T16:26:00.466Z,100719.84
2022-07-29T16:28:29.072Z,100727.44
2022-07-29T16:30:55.765Z,100716.75
2022-07-29T16:33:24.500Z,100725.72
2022-07-29T16:35:52.014Z,100716.47
2022-07-29T16:38:19.057Z,100722.91
2022-07-29T16:40:45.793Z,100714.22
2022-07-29T16:43:12.593Z,100718.44
2022-07-29T16:45:46.187Z,100713.91
2022-07-29T16:48:14.545Z,100716.19
2022-07-29T16:50:43.336Z,100719.00
2022-07-29T16:53:10.863Z,100714.72
2022-07-29T16:55:37.990Z,100717.00
2022-07-29T16:58:04.815Z,100718.91
2022-07-29T17:00:31.609Z,100724.47
2022-07-29T17:02:59.884Z,100721.09
2022-07-29T17:05:27.620Z,100722.25
2022-07-29T17:07:54.789Z,100724.53
2022-07-29T17:10:22.183Z,100718.31
2022-07-29T17:12:48.820Z,100728.97
2022-07-29T17:15:18.439Z,100729.22
2022-07-29T17:17:55.461Z,100731.53
2022-07-29T17:20:24.019Z,100726.75
2022-07-29T17:22:50.627Z,100728.97
2022-07-29T17:25:20.358Z,100724.13
2022-07-29T17:27:49.617Z,100724.44
2022-07-29T17:30:16.811Z,100725.53
2022-07-29T17:32:43.505Z,100727.22
2022-07-29T17:35:28.917Z,100717.63
2022-07-29T17:37:55.613Z,100728.56
2022-07-29T17:40:22.654Z,100728.84
2022-07-29T17:42:49.364Z,100734.97
2022-07-29T17:45:16.045Z,100727.94
2022-07-29T17:47:42.697Z,100739.25
2022-07-29T17:50:09.558Z,100741.19
2022-07-29T17:52:36.239Z,100748.75
2022-07-29T17:55:02.849Z,100749.88
2022-07-29T17:57:29.475Z,100750.16
2022-07-29T17:59:56.059Z,100751.88
2022-07-29T18:02:22.862Z,100747.72
2022-07-29T18:04:53.207Z,100747.19
2022-07-29T18:07:19.809Z,100757.63
2022-07-29T18:09:46.523Z,100758.47
2022-07-29T18:12:13.109Z,100771.19
2022-07-29T18:14:39.711Z,100764.78
2022-07-29T18:17:06.300Z,100765.66
2022-07-29T18:19:33.039Z,100763.94
2022-07-29T18:22:05.140Z,100769.59
2022-07-29T18:24:32.659Z,100765.09
2022-07-29T18:26:59.560Z,100770.97
2022-07-29T18:29:28.901Z,100762.25
2022-07-29T18:31:56.088Z,100769.00
2022-07-29T18:34:22.695Z,100766.25
2022-07-29T18:36:49.337Z,100763.97
2022-07-29T18:39:20.508Z,100760.03
2022-07-29T18:41:50.381Z,100764.53
2022-07-29T18:44:20.418Z,100765.69
2022-07-29T18:46:48.934Z,100761.75
2022-07-29T18:49:15.717Z,100769.59
2022-07-29T18:51:42.535Z,100767.63
2022-07-29T18:54:10.446Z,100770.72
2022-07-29T18:56:37.361Z,100771.84
2022-07-29T18:59:04.196Z,100766.25
2022-07-29T19:01:31.449Z,100774.66
2022-07-29T19:03:58.909Z,100769.63
2022-07-29T19:06:26.149Z,100769.63
2022-07-29T19:08:53.394Z,100770.75
2022-07-29T19:11:20.067Z,100763.72
2022-07-29T19:13:46.674Z,100765.72
2022-07-29T19:16:13.953Z,100773.53
2022-07-29T19:18:41.579Z,100771.88
2022-07-29T19:21:08.648Z,100772.38
2022-07-29T19:24:05.792Z,100771.25
2022-07-29T19:26:22.213Z,100768.16
2022-07-29T19:28:49.306Z,100775.66
2022-07-29T19:31:16.059Z,100784.59
2022-07-29T19:33:42.811Z,100780.69
2022-07-29T19:36:09.643Z,100787.47
2022-07-29T19:38:38.131Z,100786.94
2022-07-29T19:41:06.134Z,100779.91
2022-07-29T19:43:50.586Z,100791.66
2022-07-29T19:46:20.955Z,100794.19
2022-07-29T19:48:48.005Z,100797.81
2022-07-29T19:51:14.919Z,100795.84
2022-07-29T19:53:41.481Z,100804.28
2022-07-29T19:56:08.794Z,100802.53
2022-07-29T19:58:36.066Z,100807.00
2022-07-29T20:01:03.163Z,100808.91
2022-07-29T20:03:39.623Z,100802.97
2022-07-29T20:06:06.613Z,100801.84
2022-07-29T20:08:33.286Z,100803.50
2022-07-29T20:10:59.867Z,100808.19
2022-07-29T20:13:26.554Z,100814.84
2022-07-29T20:15:53.296Z,100824.09
2022-07-29T20:18:20.097Z,100818.41
2022-07-29T20:20:48.049Z,100822.13
2022-07-29T20:23:16.300Z,100819.34
2022-07-29T20:25:42.884Z,100824.69
2022-07-29T20:28:09.712Z,100822.44
2022-07-29T20:30:38.402Z,100826.03
2022-07-29T20:33:05.468Z,100819.19
2022-07-29T20:35:32.222Z,100819.97
2022-07-29T20:38:00.248Z,100828.00
2022-07-29T20:40:27.522Z,100824.97
2022-07-29T20:42:55.390Z,100827.63
2022-07-29T20:45:23.365Z,100817.13
2022-07-29T20:47:51.601Z,100825.03
2022-07-29T20:50:20.484Z,100812.66
2022-07-29T20:52:50.959Z,100832.16
2022-07-29T20:55:17.646Z,100829.81
2022-07-29T20:57:44.272Z,100831.09
2022-07-29T21:00:11.260Z,100828.53
2022-07-29T21:02:38.045Z,100832.59
2022-07-29T21:05:05.715Z,100818.19
2022-07-29T21:07:32.356Z,100832.91
2022-07-29T21:09:58.968Z,100822.00
2022-07-29T21:12:25.708Z,100834.16
2022-07-29T21:14:52.391Z,100836.22
2022-07-29T21:17:22.586Z,100832.47
2022-07-29T21:19:55.167Z,100838.72
2022-07-29T21:22:22.160Z,100834.78
2022-07-29T21:24:49.826Z,100840.34
2022-07-29T21:27:38.245Z,100836.09
2022-07-29T21:30:07.773Z,100843.88
2022-07-29T21:32:34.519Z,100849.69
2022-07-29T21:35:01.310Z,100852.47
2022-07-29T21:37:28.135Z,100845.66
2022-07-29T21:39:54.842Z,100848.53
2022-07-29T21:42:21.528Z,100861.38
2022-07-29T21:44:48.208Z,100857.81
2022-07-29T21:47:14.885Z,100862.75
2022-07-29T21:49:41.549Z,100859.28
2022-07-29T21:52:09.063Z,100863.00
2022-07-29T21:54:35.729Z,100857.97
2022-07-29T21:57:02.683Z,100853.63
2022-07-29T21:59:29.788Z,100862.66
2022-07-29T22:01:56.708Z,100866.94
2022-07-29T22:04:23.532Z,100863.94
2022-07-29T22:06:50.165Z,100863.00
2022-07-29T22:09:16.783Z,100858.19
2022-07-29T22:11:43.566Z,100854.44
2022-07-29T22:14:10.282Z,100862.06
2022-07-29T22:16:37.046Z,100853.63
2022-07-29T22:19:04.272Z,100860.91
2022-07-29T22:21:31.032Z,100856.63
2022-07-29T22:23:58.046Z,100860.25
2022-07-29T22:26:24.701Z,100862.53
2022-07-29T22:28:51.347Z,100858.50
2022-07-29T22:31:18.147Z,100851.28
2022-07-29T22:33:44.838Z,100853.97
2022-07-29T22:36:11.496Z,100852.22
2022-07-29T22:38:38.440Z,100847.19
2022-07-29T22:41:05.126Z,100846.19
2022-07-29T22:43:31.962Z,100841.06
2022-07-29T22:45:58.598Z,100849.16
2022-07-29T22:48:25.205Z,100845.03
2022-07-29T22:50:51.790Z,100837.97
2022-07-29T22:53:18.587Z,100832.03
2022-07-29T22:55:45.362Z,100833.38
2022-07-29T22:58:12.386Z,100830.16
2022-07-29T23:00:39.101Z,100833.53
2022-07-29T23:03:05.721Z,100840.72
2022-07-29T23:05:32.613Z,100836.97
2022-07-29T23:07:59.823Z,100842.28
2022-07-29T23:10:26.505Z,100831.53
2022-07-29T23:12:53.165Z,100836.59
2022-07-29T23:15:19.852Z,100836.06
2022-07-29T23:17:46.472Z,100825.94
2022-07-29T23:20:14.790Z,100830.13
2022-07-29T23:22:41.902Z,100826.75
2022-07-29T23:25:08.710Z,100831.38
2022-07-29T23:27:35.706Z,100829.22
2022-07-29T23:30:02.858Z,100827.97
2022-07-29T23:32:29.617Z,100824.94
2022-07-29T23:34:56.218Z,100823.78
2022-07-29T23:37:23.273Z,100821.75
2022-07-29T23:39:49.844Z,100825.91
2022-07-29T23:42:16.466Z,100824.16
2022-07-29T23:44:43.141Z,100821.97
2022-07-29T23:47:09.819Z,100815.50
2022-07-29T23:49:36.418Z,100825.69
2022-07-29T23:52:03.242Z,100821.34
2022-07-29T23:54:29.824Z,100812.63
2022-07-29T23:56:57.780Z,100818.56
2022-07-29T23:59:25.044Z,100808.44
